sensor_id;sensor_type;location;lat;lon;timestamp;pressure;altitude;pressure_sealevel;temperature;humidity
66945;BME280;53853;51.982;5.928;2023-05-25T00:00:42;102508.31;;;11.56;68.91
66945;BME280;53853;51.982;5.928;2023-05-25T00:03:12;102499.22;;;11.58;68.61
66945;BME280;53853;51.982;5.928;2023-05-25T00:05:42;102504.56;;;11.58;68.45
66945;BME280;53853;51.982;5.928;2023-05-25T00:08:11;102499.34;;;11.57;68.15
66945;BME280;53853;51.982;5.928;2023-05-25T00:10:44;102510.97;;;11.56;68.32
66945;BME280;53853;51.982;5.928;2023-05-25T00:13:14;102516.44;;;11.54;68.24
66945;BME280;53853;51.982;5.928;2023-05-25T00:15:43;102514.84;;;11.52;68.42
66945;BME280;53853;51.982;5.928;2023-05-25T00:18:13;102508.88;;;11.48;68.50
66945;BME280;53853;51.982;5.928;2023-05-25T00:20:44;102513.38;;;11.48;68.67
66945;BME280;53853;51.982;5.928;2023-05-25T00:23:14;102514.47;;;11.45;68.84
66945;BME280;53853;51.982;5.928;2023-05-25T00:25:46;102516.38;;;11.43;68.94
66945;BME280;53853;51.982;5.928;2023-05-25T00:28:16;102521.94;;;11.40;69.53
66945;BME280;53853;51.982;5.928;2023-05-25T00:30:46;102518.56;;;11.38;69.90
66945;BME280;53853;51.982;5.928;2023-05-25T00:33:16;102519.50;;;11.37;70.18
66945;BME280;53853;51.982;5.928;2023-05-25T00:35:46;102520.50;;;11.36;69.67
66945;BME280;53853;51.982;5.928;2023-05-25T00:38:17;102520.50;;;11.36;69.53
66945;BME280;53853;51.982;5.928;2023-05-25T00:40:54;102510.88;;;11.33;69.86
66945;BME280;53853;51.982;5.928;2023-05-25T00:43:24;102511.94;;;11.31;70.45
66945;BME280;53853;51.982;5.928;2023-05-25T00:45:57;102513.03;;;11.28;70.48
66945;BME280;53853;51.982;5.928;2023-05-25T00:48:27;102522.13;;;11.26;70.73
66945;BME280;53853;51.982;5.928;2023-05-25T00:50:57;102523.00;;;11.26;70.41
66945;BME280;53853;51.982;5.928;2023-05-25T00:53:28;102519.44;;;11.26;69.97
66945;BME280;53853;51.982;5.928;2023-05-25T00:56:04;102521.59;;;11.20;70.44
66945;BME280;53853;51.982;5.928;2023-05-25T00:58:38;102528.88;;;11.18;71.08
66945;BME280;53853;51.982;5.928;2023-05-25T01:01:09;102522.69;;;11.18;71.07
66945;BME280;53853;51.982;5.928;2023-05-25T01:03:42;102522.06;;;11.14;71.51
66945;BME280;53853;51.982;5.928;2023-05-25T01:06:15;102520.56;;;11.10;71.82
66945;BME280;53853;51.982;5.928;2023-05-25T01:08:48;102518.88;;;11.09;71.24
66945;BME280;53853;51.982;5.928;2023-05-25T01:11:25;102529.03;;;11.04;71.57
66945;BME280;53853;51.982;5.928;2023-05-25T01:13:58;102521.16;;;11.02;71.45
66945;BME280;53853;51.982;5.928;2023-05-25T01:16:28;102524.75;;;11.01;71.37
66945;BME280;53853;51.982;5.928;2023-05-25T01:18:58;102532.78;;;11.01;70.84
66945;BME280;53853;51.982;5.928;2023-05-25T01:21:35;102529.38;;;10.99;70.60
66945;BME280;53853;51.982;5.928;2023-05-25T01:24:11;102531.38;;;10.96;71.46
66945;BME280;53853;51.982;5.928;2023-05-25T01:26:54;102536.94;;;10.93;71.68
66945;BME280;53853;51.982;5.928;2023-05-25T01:29:25;102539.84;;;10.90;71.87
66945;BME280;53853;51.982;5.928;2023-05-25T01:31:57;102543.38;;;10.90;71.29
66945;BME280;53853;51.982;5.928;2023-05-25T01:34:28;102541.75;;;10.87;71.59
66945;BME280;53853;51.982;5.928;2023-05-25T01:37:02;102542.75;;;10.86;71.93
66945;BME280;53853;51.982;5.928;2023-05-25T01:39:36;102543.91;;;10.82;72.50
66945;BME280;53853;51.982;5.928;2023-05-25T01:42:06;102549.25;;;10.82;72.21
66945;BME280;53853;51.982;5.928;2023-05-25T01:44:37;102544.13;;;10.79;72.99
66945;BME280;53853;51.982;5.928;2023-05-25T01:47:14;102543.19;;;10.80;72.48
66945;BME280;53853;51.982;5.928;2023-05-25T01:49:52;102553.84;;;10.80;72.87
66945;BME280;53853;51.982;5.928;2023-05-25T01:52:31;102549.25;;;10.82;72.39
66945;BME280;53853;51.982;5.928;2023-05-25T01:55:07;102550.19;;;10.81;72.83
66945;BME280;53853;51.982;5.928;2023-05-25T01:57:43;102538.78;;;10.79;72.75
66945;BME280;53853;51.982;5.928;2023-05-25T02:00:15;102544.97;;;10.80;73.20
66945;BME280;53853;51.982;5.928;2023-05-25T02:02:47;102548.72;;;10.77;73.20
66945;BME280;53853;51.982;5.928;2023-05-25T02:05:19;102545.19;;;10.77;73.04
66945;BME280;53853;51.982;5.928;2023-05-25T02:07:52;102544.13;;;10.79;72.62
66945;BME280;53853;51.982;5.928;2023-05-25T02:10:22;102546.06;;;10.77;72.72
66945;BME280;53853;51.982;5.928;2023-05-25T02:12:52;102544.34;;;10.76;72.97
66945;BME280;53853;51.982;5.928;2023-05-25T02:15:22;102545.28;;;10.75;73.54
66945;BME280;53853;51.982;5.928;2023-05-25T02:17:52;102550.75;;;10.74;73.62
66945;BME280;53853;51.982;5.928;2023-05-25T02:20:23;102549.91;;;10.73;73.78
66945;BME280;53853;51.982;5.928;2023-05-25T02:22:56;102553.50;;;10.72;73.41
66945;BME280;53853;51.982;5.928;2023-05-25T02:25:26;102551.81;;;10.71;73.29
66945;BME280;53853;51.982;5.928;2023-05-25T02:27:56;102553.09;;;10.65;73.68
66945;BME280;53853;51.982;5.928;2023-05-25T02:30:26;102553.97;;;10.66;73.50
66945;BME280;53853;51.982;5.928;2023-05-25T02:32:58;102542.75;;;10.61;73.45
66945;BME280;53853;51.982;5.928;2023-05-25T02:35:29;102537.41;;;10.61;73.51
66945;BME280;53853;51.982;5.928;2023-05-25T02:38:02;102540.19;;;10.59;73.25
66945;BME280;53853;51.982;5.928;2023-05-25T02:40:32;102546.72;;;10.55;73.43
66945;BME280;53853;51.982;5.928;2023-05-25T02:43:02;102546.94;;;10.52;73.78
66945;BME280;53853;51.982;5.928;2023-05-25T02:45:32;102549.81;;;10.49;74.15
66945;BME280;53853;51.982;5.928;2023-05-25T02:48:02;102546.41;;;10.47;73.90
66945;BME280;53853;51.982;5.928;2023-05-25T02:50:34;102545.53;;;10.46;73.81
66945;BME280;53853;51.982;5.928;2023-05-25T02:53:10;102561.84;;;10.42;74.58
66945;BME280;53853;51.982;5.928;2023-05-25T02:55:40;102553.00;;;10.41;74.86
66945;BME280;53853;51.982;5.928;2023-05-25T02:58:14;102562.63;;;10.44;74.94
66945;BME280;53853;51.982;5.928;2023-05-25T03:00:56;102558.34;;;10.41;74.88
66945;BME280;53853;51.982;5.928;2023-05-25T03:03:27;102561.84;;;10.42;75.02
66945;BME280;53853;51.982;5.928;2023-05-25T03:05:57;102567.06;;;10.43;74.96
66945;BME280;53853;51.982;5.928;2023-05-25T03:08:30;102564.50;;;10.42;74.97
66945;BME280;53853;51.982;5.928;2023-05-25T03:11:00;102568.06;;;10.42;75.58
66945;BME280;53853;51.982;5.928;2023-05-25T03:13:30;102569.94;;;10.40;75.74
66945;BME280;53853;51.982;5.928;2023-05-25T03:15:59;102578.16;;;10.37;75.94
66945;BME280;53853;51.982;5.928;2023-05-25T03:18:29;102576.25;;;10.39;75.51
66945;BME280;53853;51.982;5.928;2023-05-25T03:20:59;102579.13;;;10.36;75.74
66945;BME280;53853;51.982;5.928;2023-05-25T03:23:32;102575.59;;;10.36;75.74
66945;BME280;53853;51.982;5.928;2023-05-25T03:26:05;102577.41;;;10.35;75.65
66945;BME280;53853;51.982;5.928;2023-05-25T03:28:35;102577.41;;;10.35;75.61
66945;BME280;53853;51.982;5.928;2023-05-25T03:31:05;102580.09;;;10.35;75.58
66945;BME280;53853;51.982;5.928;2023-05-25T03:33:35;102581.81;;;10.36;76.08
66945;BME280;53853;51.982;5.928;2023-05-25T03:36:06;102580.94;;;10.36;76.61
66945;BME280;53853;51.982;5.928;2023-05-25T03:38:42;102582.53;;;10.38;76.05
66945;BME280;53853;51.982;5.928;2023-05-25T03:41:12;102580.81;;;10.37;76.46
66945;BME280;53853;51.982;5.928;2023-05-25T03:43:42;102581.59;;;10.39;76.21
66945;BME280;53853;51.982;5.928;2023-05-25T03:46:12;102577.22;;;10.38;76.01
66945;BME280;53853;51.982;5.928;2023-05-25T03:48:43;102580.81;;;10.37;76.16
66945;BME280;53853;51.982;5.928;2023-05-25T03:51:14;102578.16;;;10.37;76.31
66945;BME280;53853;51.982;5.928;2023-05-25T03:53:48;102582.75;;;10.35;76.38
66945;BME280;53853;51.982;5.928;2023-05-25T03:56:18;102590.53;;;10.38;75.68
66945;BME280;53853;51.982;5.928;2023-05-25T03:58:51;102594.91;;;10.39;75.58
66945;BME280;53853;51.982;5.928;2023-05-25T04:01:21;102597.78;;;10.36;75.89
66945;BME280;53853;51.982;5.928;2023-05-25T04:03:52;102589.91;;;10.35;76.27
66945;BME280;53853;51.982;5.928;2023-05-25T04:06:21;102596.06;;;10.35;76.21
66945;BME280;53853;51.982;5.928;2023-05-25T04:08:54;102603.13;;;10.36;76.28
66945;BME280;53853;51.982;5.928;2023-05-25T04:11:24;102604.81;;;10.37;75.70
66945;BME280;53853;51.982;5.928;2023-05-25T04:13:54;102601.28;;;10.37;76.03
66945;BME280;53853;51.982;5.928;2023-05-25T04:16:28;102602.69;;;10.42;75.72
66945;BME280;53853;51.982;5.928;2023-05-25T04:18:58;102609.72;;;10.43;75.49
66945;BME280;53853;51.982;5.928;2023-05-25T04:21:29;102612.38;;;10.43;75.64
66945;BME280;53853;51.982;5.928;2023-05-25T04:24:02;102608.78;;;10.44;76.03
66945;BME280;53853;51.982;5.928;2023-05-25T04:26:33;102605.16;;;10.45;76.38
66945;BME280;53853;51.982;5.928;2023-05-25T04:29:05;102606.09;;;10.44;76.09
66945;BME280;53853;51.982;5.928;2023-05-25T04:32:03;102605.16;;;10.45;76.43
66945;BME280;53853;51.982;5.928;2023-05-25T04:34:58;102606.63;;;10.49;76.23
66945;BME280;53853;51.982;5.928;2023-05-25T04:37:37;102603.75;;;10.52;75.71
66945;BME280;53853;51.982;5.928;2023-05-25T04:40:10;102607.72;;;10.60;75.31
66945;BME280;53853;51.982;5.928;2023-05-25T04:42:41;102604.84;;;10.63;75.23
66945;BME280;53853;51.982;5.928;2023-05-25T04:45:13;102603.88;;;10.64;75.39
66945;BME280;53853;51.982;5.928;2023-05-25T04:47:47;102605.47;;;10.66;75.70
66945;BME280;53853;51.982;5.928;2023-05-25T04:50:17;102613.06;;;10.73;75.12
66945;BME280;53853;51.982;5.928;2023-05-25T04:52:47;102616.25;;;10.78;75.22
66945;BME280;53853;51.982;5.928;2023-05-25T04:55:20;102612.63;;;10.79;75.88
66945;BME280;53853;51.982;5.928;2023-05-25T04:57:50;102623.81;;;10.84;75.84
66945;BME280;53853;51.982;5.928;2023-05-25T05:00:21;102621.66;;;10.89;75.84
66945;BME280;53853;51.982;5.928;2023-05-25T05:02:54;102632.88;;;10.94;75.63
66945;BME280;53853;51.982;5.928;2023-05-25T05:05:25;102633.31;;;11.01;76.03
66945;BME280;53853;51.982;5.928;2023-05-25T05:07:57;102640.00;;;11.06;76.03
66945;BME280;53853;51.982;5.928;2023-05-25T05:10:32;102649.91;;;11.17;76.51
66945;BME280;53853;51.982;5.928;2023-05-25T05:13:03;102644.63;;;11.41;77.09
66945;BME280;53853;51.982;5.928;2023-05-25T05:15:33;102643.97;;;11.75;77.28
66945;BME280;53853;51.982;5.928;2023-05-25T05:18:03;102649.88;;;12.04;76.67
66945;BME280;53853;51.982;5.928;2023-05-25T05:20:34;102661.72;;;12.24;75.28
66945;BME280;53853;51.982;5.928;2023-05-25T05:23:04;102660.56;;;12.40;74.06
66945;BME280;53853;51.982;5.928;2023-05-25T05:25:37;102651.38;;;12.55;73.91
66945;BME280;53853;51.982;5.928;2023-05-25T05:28:07;102651.63;;;12.63;73.15
66945;BME280;53853;51.982;5.928;2023-05-25T05:30:40;102661.13;;;12.67;72.62
66945;BME280;53853;51.982;5.928;2023-05-25T05:33:12;102664.31;;;12.73;72.51
66945;BME280;53853;51.982;5.928;2023-05-25T05:35:47;102662.72;;;12.81;72.28
66945;BME280;53853;51.982;5.928;2023-05-25T05:38:21;102663.59;;;12.93;72.12
66945;BME280;53853;51.982;5.928;2023-05-25T05:40:53;102668.22;;;13.02;72.25
66945;BME280;53853;51.982;5.928;2023-05-25T05:43:23;102676.38;;;13.12;71.77
66945;BME280;53853;51.982;5.928;2023-05-25T05:45:53;102672.97;;;13.21;71.67
66945;BME280;53853;51.982;5.928;2023-05-25T05:48:23;102675.44;;;13.36;71.13
66945;BME280;53853;51.982;5.928;2023-05-25T05:50:53;102676.00;;;13.51;70.95
66945;BME280;53853;51.982;5.928;2023-05-25T05:53:23;102672.00;;;13.56;70.57
66945;BME280;53853;51.982;5.928;2023-05-25T05:55:56;102667.72;;;13.54;69.82
66945;BME280;53853;51.982;5.928;2023-05-25T05:58:26;102673.22;;;13.52;69.79
66945;BME280;53853;51.982;5.928;2023-05-25T06:00:58;102682.97;;;13.53;69.74
66945;BME280;53853;51.982;5.928;2023-05-25T06:03:29;102671.88;;;13.58;69.98
66945;BME280;53853;51.982;5.928;2023-05-25T06:05:58;102681.59;;;13.59;69.56
66945;BME280;53853;51.982;5.928;2023-05-25T06:08:28;102675.28;;;13.60;69.57
66945;BME280;53853;51.982;5.928;2023-05-25T06:11:01;102682.22;;;13.63;69.48
66945;BME280;53853;51.982;5.928;2023-05-25T06:13:31;102684.78;;;13.64;69.41
66945;BME280;53853;51.982;5.928;2023-05-25T06:16:01;102686.22;;;13.68;69.29
66945;BME280;53853;51.982;5.928;2023-05-25T06:18:31;102695.72;;;13.72;69.28
66945;BME280;53853;51.982;5.928;2023-05-25T06:21:01;102687.19;;;13.79;69.56
66945;BME280;53853;51.982;5.928;2023-05-25T06:23:31;102691.03;;;13.86;69.47
66945;BME280;53853;51.982;5.928;2023-05-25T06:26:07;102703.09;;;13.91;69.05
66945;BME280;53853;51.982;5.928;2023-05-25T06:28:36;102694.69;;;13.96;69.16
66945;BME280;53853;51.982;5.928;2023-05-25T06:31:06;102704.41;;;13.97;68.45
66945;BME280;53853;51.982;5.928;2023-05-25T06:33:36;102710.13;;;14.04;68.79
66945;BME280;53853;51.982;5.928;2023-05-25T06:36:07;102704.41;;;14.08;68.59
66945;BME280;53853;51.982;5.928;2023-05-25T06:38:37;102701.06;;;14.16;68.71
66945;BME280;53853;51.982;5.928;2023-05-25T06:41:11;102709.91;;;14.28;68.90
66945;BME280;53853;51.982;5.928;2023-05-25T06:43:41;102712.16;;;14.44;68.69
66945;BME280;53853;51.982;5.928;2023-05-25T06:46:31;102707.44;;;14.57;68.24
66945;BME280;53853;51.982;5.928;2023-05-25T06:49:02;102711.94;;;14.68;68.00
66945;BME280;53853;51.982;5.928;2023-05-25T06:51:32;102717.75;;;14.73;67.46
66945;BME280;53853;51.982;5.928;2023-05-25T06:54:03;102724.31;;;14.80;66.37
66945;BME280;53853;51.982;5.928;2023-05-25T06:56:36;102726.34;;;14.88;66.49
66945;BME280;53853;51.982;5.928;2023-05-25T06:59:06;102722.75;;;14.99;65.56
66945;BME280;53853;51.982;5.928;2023-05-25T07:01:36;102721.06;;;15.08;65.71
66945;BME280;53853;51.982;5.928;2023-05-25T07:04:06;102718.69;;;15.14;65.76
66945;BME280;53853;51.982;5.928;2023-05-25T07:06:37;102720.72;;;15.22;62.83
66945;BME280;53853;51.982;5.928;2023-05-25T07:09:07;102719.63;;;15.25;63.28
66945;BME280;53853;51.982;5.928;2023-05-25T07:11:39;102726.13;;;15.32;63.84
66945;BME280;53853;51.982;5.928;2023-05-25T07:14:09;102721.94;;;15.39;63.92
66945;BME280;53853;51.982;5.928;2023-05-25T07:16:39;102724.34;;;15.42;63.29
66945;BME280;53853;51.982;5.928;2023-05-25T07:19:10;102719.84;;;15.52;63.75
66945;BME280;53853;51.982;5.928;2023-05-25T07:21:40;102725.56;;;15.59;62.47
66945;BME280;53853;51.982;5.928;2023-05-25T07:24:10;102720.75;;;15.63;62.15
66945;BME280;53853;51.982;5.928;2023-05-25T07:26:43;102725.13;;;15.64;62.49
66945;BME280;53853;51.982;5.928;2023-05-25T07:29:13;102718.22;;;15.71;62.58
66945;BME280;53853;51.982;5.928;2023-05-25T07:31:43;102727.47;;;15.78;61.95
66945;BME280;53853;51.982;5.928;2023-05-25T07:34:13;102732.53;;;15.81;61.28
66945;BME280;53853;51.982;5.928;2023-05-25T07:36:43;102732.13;;;15.86;61.44
66945;BME280;53853;51.982;5.928;2023-05-25T07:39:13;102741.63;;;15.90;60.91
66945;BME280;53853;51.982;5.928;2023-05-25T07:41:46;102742.19;;;15.93;60.88
66945;BME280;53853;51.982;5.928;2023-05-25T07:44:15;102741.38;;;16.03;60.91
66945;BME280;53853;51.982;5.928;2023-05-25T07:46:45;102747.31;;;16.06;60.90
66945;BME280;53853;51.982;5.928;2023-05-25T07:49:15;102742.97;;;16.15;60.16
66945;BME280;53853;51.982;5.928;2023-05-25T07:51:45;102745.22;;;16.20;59.05
66945;BME280;53853;51.982;5.928;2023-05-25T07:54:15;102751.03;;;16.25;59.17
66945;BME280;53853;51.982;5.928;2023-05-25T07:56:47;102749.63;;;16.30;59.48
66945;BME280;53853;51.982;5.928;2023-05-25T07:59:17;102754.28;;;16.38;60.12
66945;BME280;53853;51.982;5.928;2023-05-25T08:01:47;102758.81;;;16.47;58.71
66945;BME280;53853;51.982;5.928;2023-05-25T08:04:17;102762.94;;;16.52;57.20
66945;BME280;53853;51.982;5.928;2023-05-25T08:06:47;102760.94;;;16.54;57.41
66945;BME280;53853;51.982;5.928;2023-05-25T08:09:17;102758.53;;;16.60;57.58
66945;BME280;53853;51.982;5.928;2023-05-25T08:11:49;102766.63;;;16.70;56.24
66945;BME280;53853;51.982;5.928;2023-05-25T08:14:19;102772.28;;;16.77;57.36
66945;BME280;53853;51.982;5.928;2023-05-25T08:16:50;102760.94;;;16.83;55.95
66945;BME280;53853;51.982;5.928;2023-05-25T08:19:20;102765.78;;;16.89;56.49
66945;BME280;53853;51.982;5.928;2023-05-25T08:21:50;102771.88;;;16.91;54.27
66945;BME280;53853;51.982;5.928;2023-05-25T08:24:20;102770.88;;;16.92;55.21
66945;BME280;53853;51.982;5.928;2023-05-25T08:26:52;102777.50;;;16.98;56.15
66945;BME280;53853;51.982;5.928;2023-05-25T08:29:22;102771.41;;;17.06;56.07
66945;BME280;53853;51.982;5.928;2023-05-25T08:31:52;102775.94;;;17.15;56.03
66945;BME280;53853;51.982;5.928;2023-05-25T08:34:22;102777.03;;;17.22;56.88
66945;BME280;53853;51.982;5.928;2023-05-25T08:36:52;102778.94;;;17.39;57.26
66945;BME280;53853;51.982;5.928;2023-05-25T08:39:22;102776.06;;;17.51;53.36
66945;BME280;53853;51.982;5.928;2023-05-25T08:41:55;102776.22;;;17.49;53.20
66945;BME280;53853;51.982;5.928;2023-05-25T08:44:26;102781.31;;;17.52;53.90
66945;BME280;53853;51.982;5.928;2023-05-25T08:46:56;102783.41;;;17.59;54.59
66945;BME280;53853;51.982;5.928;2023-05-25T08:49:28;102774.50;;;17.58;52.16
66945;BME280;53853;51.982;5.928;2023-05-25T08:51:59;102779.03;;;17.58;53.57
66945;BME280;53853;51.982;5.928;2023-05-25T08:54:31;102789.81;;;17.58;53.91
66945;BME280;53853;51.982;5.928;2023-05-25T08:57:12;102780.72;;;17.59;53.42
66945;BME280;53853;51.982;5.928;2023-05-25T08:59:51;102780.03;;;17.56;52.72
66945;BME280;53853;51.982;5.928;2023-05-25T09:02:29;102776.06;;;17.61;52.99
66945;BME280;53853;51.982;5.928;2023-05-25T09:05:01;102770.91;;;17.67;53.08
66945;BME280;53853;51.982;5.928;2023-05-25T09:07:32;102775.28;;;17.68;52.53
66945;BME280;53853;51.982;5.928;2023-05-25T09:10:03;102778.59;;;17.62;53.06
66945;BME280;53853;51.982;5.928;2023-05-25T09:12:36;102781.09;;;17.73;54.23
66945;BME280;53853;51.982;5.928;2023-05-25T09:15:08;102782.28;;;17.89;52.54
66945;BME280;53853;51.982;5.928;2023-05-25T09:17:39;102775.16;;;17.98;52.52
66945;BME280;53853;51.982;5.928;2023-05-25T09:20:10;102771.31;;;18.00;51.17
66945;BME280;53853;51.982;5.928;2023-05-25T09:22:41;102776.09;;;18.06;52.74
66945;BME280;53853;51.982;5.928;2023-05-25T09:25:16;102777.41;;;18.20;51.19
66945;BME280;53853;51.982;5.928;2023-05-25T09:27:49;102778.00;;;18.24;50.10
66945;BME280;53853;51.982;5.928;2023-05-25T09:30:20;102784.16;;;18.34;50.06
66945;BME280;53853;51.982;5.928;2023-05-25T09:32:50;102776.59;;;18.38;47.54
66945;BME280;53853;51.982;5.928;2023-05-25T09:35:20;102776.34;;;18.31;48.87
66945;BME280;53853;51.982;5.928;2023-05-25T09:37:53;102769.03;;;18.23;49.95
66945;BME280;53853;51.982;5.928;2023-05-25T09:40:23;102773.50;;;18.15;50.38
66945;BME280;53853;51.982;5.928;2023-05-25T09:42:57;102769.94;;;18.14;49.97
66945;BME280;53853;51.982;5.928;2023-05-25T09:45:27;102764.38;;;18.16;50.92
66945;BME280;53853;51.982;5.928;2023-05-25T09:47:58;102770.38;;;18.09;50.39
66945;BME280;53853;51.982;5.928;2023-05-25T09:50:28;102764.91;;;18.01;49.21
66945;BME280;53853;51.982;5.928;2023-05-25T09:52:59;102764.53;;;17.96;50.23
66945;BME280;53853;51.982;5.928;2023-05-25T09:55:30;102766.13;;;17.89;50.16
66945;BME280;53853;51.982;5.928;2023-05-25T09:58:02;102774.22;;;17.89;50.03
66945;BME280;53853;51.982;5.928;2023-05-25T10:00:34;102780.19;;;17.83;49.39
66945;BME280;53853;51.982;5.928;2023-05-25T10:03:04;102765.59;;;17.75;49.92
66945;BME280;53853;51.982;5.928;2023-05-25T10:05:34;102766.72;;;17.83;50.12
66945;BME280;53853;51.982;5.928;2023-05-25T10:08:04;102763.38;;;17.99;50.47
66945;BME280;53853;51.982;5.928;2023-05-25T10:10:34;102769.78;;;18.16;50.02
66945;BME280;53853;51.982;5.928;2023-05-25T10:13:08;102766.84;;;18.27;49.27
66945;BME280;53853;51.982;5.928;2023-05-25T10:15:39;102765.56;;;18.31;48.34
66945;BME280;53853;51.982;5.928;2023-05-25T10:18:14;102757.47;;;18.31;46.68
66945;BME280;53853;51.982;5.928;2023-05-25T10:20:46;102768.47;;;18.38;48.61
66945;BME280;53853;51.982;5.928;2023-05-25T10:23:19;102764.84;;;18.47;47.83
66945;BME280;53853;51.982;5.928;2023-05-25T10:25:54;102766.63;;;18.56;48.54
66945;BME280;53853;51.982;5.928;2023-05-25T10:28:35;102761.13;;;18.66;47.56
66945;BME280;53853;51.982;5.928;2023-05-25T10:31:05;102760.16;;;18.67;46.78
66945;BME280;53853;51.982;5.928;2023-05-25T10:33:35;102760.81;;;18.69;47.62
66945;BME280;53853;51.982;5.928;2023-05-25T10:36:06;102772.31;;;18.71;48.21
66945;BME280;53853;51.982;5.928;2023-05-25T10:38:39;102773.66;;;18.67;47.43
66945;BME280;53853;51.982;5.928;2023-05-25T10:41:11;102777.66;;;18.63;48.06
66945;BME280;53853;51.982;5.928;2023-05-25T10:43:46;102778.03;;;18.68;47.89
66945;BME280;53853;51.982;5.928;2023-05-25T10:46:16;102773.47;;;18.87;48.11
66945;BME280;53853;51.982;5.928;2023-05-25T10:48:47;102770.22;;;19.01;48.07
66945;BME280;53853;51.982;5.928;2023-05-25T10:51:19;102772.63;;;19.12;45.65
66945;BME280;53853;51.982;5.928;2023-05-25T10:53:59;102767.81;;;19.24;46.90
66945;BME280;53853;51.982;5.928;2023-05-25T10:56:29;102770.72;;;19.31;46.04
66945;BME280;53853;51.982;5.928;2023-05-25T10:59:01;102773.78;;;19.36;44.79
66945;BME280;53853;51.982;5.928;2023-05-25T11:01:31;102776.97;;;19.31;44.67
66945;BME280;53853;51.982;5.928;2023-05-25T11:04:15;102768.53;;;19.34;45.58
66945;BME280;53853;51.982;5.928;2023-05-25T11:07:09;102756.09;;;19.42;45.21
66945;BME280;53853;51.982;5.928;2023-05-25T11:09:43;102761.50;;;19.42;45.28
66945;BME280;53853;51.982;5.928;2023-05-25T11:12:24;102770.59;;;19.41;45.91
66945;BME280;53853;51.982;5.928;2023-05-25T11:15:14;102772.59;;;19.30;44.71
66945;BME280;53853;51.982;5.928;2023-05-25T11:17:45;102768.63;;;19.16;45.99
66945;BME280;53853;51.982;5.928;2023-05-25T11:20:27;102765.47;;;19.03;45.92
66945;BME280;53853;51.982;5.928;2023-05-25T11:22:58;102771.59;;;19.05;46.02
66945;BME280;53853;51.982;5.928;2023-05-25T11:25:38;102771.66;;;19.13;46.02
66945;BME280;53853;51.982;5.928;2023-05-25T11:28:09;102766.97;;;19.24;46.43
66945;BME280;53853;51.982;5.928;2023-05-25T11:30:42;102770.06;;;19.29;45.78
66945;BME280;53853;51.982;5.928;2023-05-25T11:33:12;102756.94;;;19.42;45.76
66945;BME280;53853;51.982;5.928;2023-05-25T11:35:42;102757.66;;;19.52;45.43
66945;BME280;53853;51.982;5.928;2023-05-25T11:38:14;102756.28;;;19.48;43.18
66945;BME280;53853;51.982;5.928;2023-05-25T11:40:44;102749.88;;;19.49;42.20
66945;BME280;53853;51.982;5.928;2023-05-25T11:43:15;102753.44;;;19.58;43.41
66945;BME280;53853;51.982;5.928;2023-05-25T11:45:54;102747.91;;;19.68;42.35
66945;BME280;53853;51.982;5.928;2023-05-25T11:48:26;102757.41;;;19.72;43.67
66945;BME280;53853;51.982;5.928;2023-05-25T11:51:05;102754.91;;;19.79;43.28
66945;BME280;53853;51.982;5.928;2023-05-25T11:53:41;102755.09;;;19.85;44.07
66945;BME280;53853;51.982;5.928;2023-05-25T11:56:12;102753.44;;;19.93;42.68
66945;BME280;53853;51.982;5.928;2023-05-25T11:58:42;102753.53;;;19.75;42.34
66945;BME280;53853;51.982;5.928;2023-05-25T12:01:20;102744.53;;;19.74;42.21
66945;BME280;53853;51.982;5.928;2023-05-25T12:03:51;102734.16;;;19.87;42.78
66945;BME280;53853;51.982;5.928;2023-05-25T12:06:26;102740.09;;;20.07;43.54
66945;BME280;53853;51.982;5.928;2023-05-25T12:08:56;102737.22;;;20.17;43.05
66945;BME280;53853;51.982;5.928;2023-05-25T12:11:28;102734.56;;;20.25;42.80
66945;BME280;53853;51.982;5.928;2023-05-25T12:13:59;102730.63;;;20.28;42.43
66945;BME280;53853;51.982;5.928;2023-05-25T12:16:32;102727.44;;;20.33;42.89
66945;BME280;53853;51.982;5.928;2023-05-25T12:19:04;102734.22;;;20.37;42.44
66945;BME280;53853;51.982;5.928;2023-05-25T12:21:35;102740.63;;;20.36;42.34
66945;BME280;53853;51.982;5.928;2023-05-25T12:24:06;102735.88;;;20.38;42.04
66945;BME280;53853;51.982;5.928;2023-05-25T12:26:47;102730.13;;;20.41;42.12
66945;BME280;53853;51.982;5.928;2023-05-25T12:29:17;102723.06;;;20.40;42.60
66945;BME280;53853;51.982;5.928;2023-05-25T12:31:49;102731.16;;;20.48;41.85
66945;BME280;53853;51.982;5.928;2023-05-25T12:34:20;102730.84;;;20.51;41.55
66945;BME280;53853;51.982;5.928;2023-05-25T12:36:51;102728.13;;;20.43;40.36
66945;BME280;53853;51.982;5.928;2023-05-25T12:39:32;102730.47;;;20.30;40.12
66945;BME280;53853;51.982;5.928;2023-05-25T12:42:10;102727.59;;;20.31;41.09
66945;BME280;53853;51.982;5.928;2023-05-25T12:44:41;102721.66;;;20.52;41.55
66945;BME280;53853;51.982;5.928;2023-05-25T12:47:15;102725.75;;;20.81;40.70
66945;BME280;53853;51.982;5.928;2023-05-25T12:49:46;102724.03;;;20.88;37.77
66945;BME280;53853;51.982;5.928;2023-05-25T12:52:33;102720.66;;;20.86;39.19
66945;BME280;53853;51.982;5.928;2023-05-25T12:55:27;102723.38;;;20.86;39.98
66945;BME280;53853;51.982;5.928;2023-05-25T12:57:58;102733.38;;;20.86;40.14
66945;BME280;53853;51.982;5.928;2023-05-25T13:00:32;102718.47;;;20.81;39.72
66945;BME280;53853;51.982;5.928;2023-05-25T13:03:05;102722.69;;;20.92;40.61
66945;BME280;53853;51.982;5.928;2023-05-25T13:05:36;102718.25;;;20.99;39.69
66945;BME280;53853;51.982;5.928;2023-05-25T13:08:06;102717.63;;;20.89;38.85
66945;BME280;53853;51.982;5.928;2023-05-25T13:10:37;102718.28;;;20.83;39.35
66945;BME280;53853;51.982;5.928;2023-05-25T13:13:07;102720.00;;;20.84;40.03
66945;BME280;53853;51.982;5.928;2023-05-25T13:15:39;102705.56;;;20.92;40.15